createdAt,value
2018-07-12T00:00:39.604Z,96906.23
2018-07-12T00:03:05.756Z,96908.83
2018-07-12T00:05:31.891Z,96908.03
2018-07-12T00:07:58.049Z,96901.89
2018-07-12T00:10:24.156Z,96899.17
2018-07-12T00:12:50.275Z,96900.78
2018-07-12T00:15:16.416Z,96901.73
2018-07-12T00:17:42.551Z,96902.80
2018-07-12T00:20:08.649Z,96907.20
2018-07-12T00:22:34.775Z,96905.13
2018-07-12T00:25:00.906Z,96903.66
2018-07-12T00:27:27.028Z,96899.23
2018-07-12T00:29:53.263Z,96900.16
2018-07-12T00:32:19.403Z,96899.08
2018-07-12T00:34:45.509Z,96901.27
2018-07-12T00:37:11.601Z,96901.20
2018-07-12T00:39:37.744Z,96904.14
2018-07-12T00:42:04.283Z,96899.27
2018-07-12T00:44:30.392Z,96892.83
2018-07-12T00:46:56.595Z,96891.45
2018-07-12T00:49:22.799Z,96899.14
2018-07-12T00:51:48.933Z,96894.53
2018-07-12T00:54:15.044Z,96895.20
2018-07-12T00:56:41.178Z,96895.35
2018-07-12T00:59:07.267Z,96889.67
2018-07-12T01:01:33.488Z,96899.34
2018-07-12T01:03:59.591Z,96889.02
2018-07-12T01:06:25.710Z,96887.83
2018-07-12T01:08:51.826Z,96896.09
2018-07-12T01:11:17.940Z,96888.63
2018-07-12T01:13:44.047Z,96887.70
2018-07-12T01:16:10.161Z,96887.34
2018-07-12T01:18:36.296Z,96886.59
2018-07-12T01:21:02.401Z,96894.48
2018-07-12T01:23:28.536Z,96892.44
2018-07-12T01:25:54.668Z,96883.83
2018-07-12T01:28:20.788Z,96878.57
2018-07-12T01:30:46.896Z,96881.40
2018-07-12T01:33:13.068Z,96889.34
2018-07-12T01:35:39.199Z,96881.04
2018-07-12T01:38:05.356Z,96881.94
2018-07-12T01:40:31.524Z,96877.98
2018-07-12T01:42:57.671Z,96877.06
2018-07-12T01:45:23.792Z,96879.75
2018-07-12T01:47:49.890Z,96880.90
2018-07-12T01:50:15.999Z,96880.45
2018-07-12T01:52:42.186Z,96881.78
2018-07-12T01:55:08.345Z,96877.94
2018-07-12T01:57:34.463Z,96879.62
2018-07-12T02:00:00.608Z,96878.27
2018-07-12T02:02:26.743Z,96873.96
2018-07-12T02:04:52.878Z,96874.92
2018-07-12T02:07:19.032Z,96882.12
2018-07-12T02:09:45.167Z,96878.36
2018-07-12T02:12:11.296Z,96876.48
2018-07-12T02:14:37.392Z,96871.88
2018-07-12T02:17:03.574Z,96873.52
2018-07-12T02:19:29.665Z,96872.22
2018-07-12T02:21:55.772Z,96875.87
2018-07-12T02:24:21.919Z,96875.92
2018-07-12T02:26:48.048Z,96873.82
2018-07-12T02:29:14.167Z,96877.77
2018-07-12T02:31:40.304Z,96875.78
2018-07-12T02:34:06.400Z,96873.16
2018-07-12T02:36:32.566Z,96871.22
2018-07-12T02:38:58.669Z,96875.31
2018-07-12T02:41:24.788Z,96877.41
2018-07-12T02:43:50.929Z,96874.98
2018-07-12T02:46:17.181Z,96868.45
2018-07-12T02:48:43.300Z,96866.70
2018-07-12T02:51:09.521Z,96873.78
2018-07-12T02:53:35.653Z,96872.98
2018-07-12T02:56:01.779Z,96866.70
2018-07-12T02:58:27.877Z,96870.69
2018-07-12T03:00:54.001Z,96866.70
2018-07-12T03:03:20.118Z,96866.70
2018-07-12T03:05:46.236Z,96866.45
2018-07-12T03:08:12.356Z,96867.70
2018-07-12T03:10:38.492Z,96868.45
2018-07-12T03:13:04.643Z,96864.83
2018-07-12T03:15:30.773Z,96865.02
2018-07-12T03:17:56.927Z,96865.91
2018-07-12T03:20:23.017Z,96866.79
2018-07-12T03:22:49.165Z,96865.12
2018-07-12T03:25:15.282Z,96863.03
2018-07-12T03:27:41.454Z,96865.80
2018-07-12T03:30:07.599Z,96859.59
2018-07-12T03:32:33.723Z,96857.94
2018-07-12T03:34:59.828Z,96850.97
2018-07-12T03:37:25.948Z,96847.56
2018-07-12T03:39:52.072Z,96851.09
2018-07-12T03:42:18.184Z,96854.86
2018-07-12T03:44:44.317Z,96845.89
2018-07-12T03:47:10.409Z,96852.09
2018-07-12T03:49:36.538Z,96857.16
2018-07-12T03:52:02.659Z,96851.77
2018-07-12T03:54:28.776Z,96853.73
2018-07-12T03:56:54.875Z,96855.96
2018-07-12T03:59:21.020Z,96853.09
2018-07-12T04:01:47.116Z,96853.96
2018-07-12T04:04:13.379Z,96856.97
2018-07-12T04:06:39.493Z,96863.95
2018-07-12T04:09:06.060Z,96863.36
2018-07-12T04:11:32.201Z,96866.56
2018-07-12T04:13:58.449Z,96871.13
2018-07-12T04:16:24.606Z,96864.27
2018-07-12T04:18:50.740Z,96871.22
2018-07-12T04:21:16.884Z,96867.45
2018-07-12T04:23:42.976Z,96863.48
2018-07-12T04:26:09.123Z,96859.52
2018-07-12T04:28:35.224Z,96862.25
2018-07-12T04:31:01.344Z,96862.80
2018-07-12T04:33:27.472Z,96862.94
2018-07-12T04:35:53.576Z,96855.94
2018-07-12T04:38:19.712Z,96848.55
2018-07-12T04:40:45.796Z,96851.09
2018-07-12T04:43:11.920Z,96851.31
2018-07-12T04:45:38.013Z,96856.19
2018-07-12T04:48:04.112Z,96856.20
2018-07-12T04:50:30.231Z,96853.98
2018-07-12T04:52:56.372Z,96859.06
2018-07-12T04:55:22.488Z,96854.53
2018-07-12T04:57:48.624Z,96857.08
2018-07-12T05:00:14.748Z,96869.47
2018-07-12T05:02:40.883Z,96874.69
2018-07-12T05:05:07.030Z,96865.06
2018-07-12T05:07:33.171Z,96864.81
2018-07-12T05:09:59.304Z,96866.47
2018-07-12T05:12:25.420Z,96873.25
2018-07-12T05:14:51.512Z,96873.79
2018-07-12T05:17:17.644Z,96862.50
2018-07-12T05:19:43.818Z,96859.86
2018-07-12T05:22:09.948Z,96862.94
2018-07-12T05:24:36.098Z,96872.47
2018-07-12T05:27:02.204Z,96874.89
2018-07-12T05:29:28.313Z,96880.22
2018-07-12T05:31:54.452Z,96882.44
2018-07-12T05:34:20.560Z,96881.11
2018-07-12T05:36:52.074Z,96886.08
2018-07-12T05:39:19.926Z,96889.53
2018-07-12T05:41:47.136Z,96900.27
2018-07-12T05:44:15.041Z,96902.14
2018-07-12T05:46:42.421Z,96901.59
2018-07-12T05:49:09.603Z,96895.40
2018-07-12T05:51:36.728Z,96893.06
2018-07-12T05:54:03.895Z,96901.37
2018-07-12T05:56:31.036Z,96893.95
2018-07-12T05:58:58.183Z,96897.28
2018-07-12T06:02:32.719Z,96904.80
2018-07-12T06:04:59.844Z,96907.14
2018-07-12T06:07:29.503Z,96908.00
2018-07-12T06:09:56.713Z,96914.43
2018-07-12T06:12:23.869Z,96911.77
2018-07-12T06:14:51.040Z,96918.09
2018-07-12T06:17:18.161Z,96916.33
2018-07-12T06:19:45.403Z,96916.33
2018-07-12T06:22:12.880Z,96913.23
2018-07-12T06:24:40.138Z,96916.55
2018-07-12T06:27:07.614Z,96913.75
2018-07-12T06:29:34.824Z,96910.77
2018-07-12T06:32:01.925Z,96912.99
2018-07-12T06:34:29.193Z,96913.23
2018-07-12T06:36:56.278Z,96909.45
2018-07-12T06:39:23.512Z,96909.45
2018-07-12T06:41:51.093Z,96902.68
2018-07-12T06:44:18.197Z,96904.66
2018-07-12T06:46:45.305Z,96902.95
2018-07-12T06:49:12.429Z,96905.28
2018-07-12T06:51:39.552Z,96900.91
2018-07-12T06:54:06.860Z,96907.44
2018-07-12T06:56:34.005Z,96918.69
2018-07-12T06:59:01.130Z,96914.23
2018-07-12T07:01:28.252Z,96914.58
2018-07-12T07:03:55.681Z,96913.17
2018-07-12T07:06:22.769Z,96916.82
2018-07-12T07:08:49.888Z,96918.58
2018-07-12T07:11:17.006Z,96915.84
2018-07-12T07:13:44.160Z,96924.67
2018-07-12T07:16:11.319Z,96920.20
2018-07-12T07:18:38.498Z,96920.18
2018-07-12T07:21:05.712Z,96918.16
2018-07-12T07:23:32.872Z,96917.12
2018-07-12T07:25:59.985Z,96916.13
2018-07-12T07:28:27.140Z,96921.96
2018-07-12T07:30:54.279Z,96924.08
2018-07-12T07:33:21.434Z,96928.42
2018-07-12T07:35:48.620Z,96935.01
2018-07-12T07:38:15.735Z,96930.45
2018-07-12T07:40:42.833Z,96932.73
2018-07-12T07:43:10.066Z,96927.72
2018-07-12T07:45:37.392Z,96932.89
2018-07-12T07:48:04.592Z,96936.09
2018-07-12T07:50:31.784Z,96943.72
2018-07-12T07:52:58.929Z,96941.05
2018-07-12T07:55:26.070Z,96940.20
2018-07-12T07:57:53.192Z,96941.69
2018-07-12T08:00:20.372Z,96950.39
2018-07-12T08:02:47.457Z,96939.30
2018-07-12T08:05:14.981Z,96944.11
2018-07-12T08:07:42.426Z,96939.88
2018-07-12T08:10:09.596Z,96944.48
2018-07-12T08:12:36.733Z,96941.92
2018-07-12T08:15:04.769Z,96952.05
2018-07-12T08:17:31.881Z,96943.47
2018-07-12T08:19:59.000Z,96942.00
2018-07-12T08:22:26.119Z,96948.73
2018-07-12T08:24:53.279Z,96945.95
2018-07-12T08:27:20.433Z,96943.16
2018-07-12T08:29:47.722Z,96945.97
2018-07-12T08:32:14.947Z,96947.78
2018-07-12T08:34:42.055Z,96945.93
2018-07-12T08:37:09.157Z,96948.97
2018-07-12T08:39:36.338Z,96947.94
2018-07-12T08:42:03.470Z,96952.52
2018-07-12T08:44:30.668Z,96955.34
2018-07-12T08:46:57.823Z,96953.30
2018-07-12T08:49:24.992Z,96953.05
2018-07-12T08:51:52.080Z,96951.48
2018-07-12T08:54:19.270Z,96952.05
2018-07-12T08:56:46.456Z,96959.56
2018-07-12T08:59:13.612Z,96959.35
2018-07-12T09:01:40.752Z,96961.13
2018-07-12T09:04:07.933Z,96961.83
2018-07-12T09:06:35.075Z,96966.41
2018-07-12T09:09:02.396Z,96959.54
2018-07-12T09:11:29.860Z,96965.20
2018-07-12T09:13:57.012Z,96966.70
2018-07-12T09:16:24.996Z,96962.53
2018-07-12T09:18:52.141Z,96955.43
2018-07-12T09:21:19.283Z,96950.86
2018-07-12T09:23:46.430Z,96953.70
2018-07-12T09:26:13.591Z,96961.16
2018-07-12T09:28:40.688Z,96955.48
2018-07-12T09:31:08.239Z,96956.81
2018-07-12T09:33:35.376Z,96952.22
2018-07-12T09:36:02.607Z,96944.48
2018-07-12T09:38:51.313Z,96954.45
2018-07-12T09:41:19.762Z,96961.75
2018-07-12T09:43:47.423Z,96967.30
2018-07-12T09:46:14.834Z,96967.84
2018-07-12T09:48:43.445Z,96965.67
2018-07-12T09:51:11.305Z,96967.45
2018-07-12T09:53:39.005Z,96967.87
2018-07-12T09:56:06.370Z,96963.98
2018-07-12T09:58:34.049Z,96960.96
2018-07-12T10:01:06.912Z,96953.43
2018-07-12T10:03:39.886Z,96957.57
2018-07-12T10:06:12.728Z,96956.14
2018-07-12T10:08:45.467Z,96959.09
2018-07-12T10:11:18.229Z,96961.72
2018-07-12T10:13:50.711Z,96959.30
2018-07-12T10:16:24.523Z,96952.75
2018-07-12T10:18:51.928Z,96957.69
2018-07-12T10:21:19.129Z,96951.75
2018-07-12T10:23:46.304Z,96950.78
2018-07-12T10:26:13.447Z,96954.38
2018-07-12T10:28:40.576Z,96962.02
2018-07-12T10:31:07.748Z,96961.47
2018-07-12T10:33:34.861Z,96967.95
2018-07-12T10:36:01.965Z,96965.50
2018-07-12T10:38:29.040Z,96972.25
2018-07-12T10:40:56.145Z,96971.20
2018-07-12T10:43:23.315Z,96963.58
2018-07-12T10:45:50.517Z,96958.86
2018-07-12T10:48:17.656Z,96960.28
2018-07-12T10:50:44.809Z,96965.53
2018-07-12T10:53:11.937Z,96964.25
2018-07-12T10:55:39.071Z,96974.05
2018-07-12T10:58:06.215Z,96963.39
2018-07-12T11:00:33.401Z,96963.86
2018-07-12T11:03:00.531Z,96966.61
2018-07-12T11:05:27.692Z,96963.27
2018-07-12T11:07:54.990Z,96967.63
2018-07-12T11:10:22.055Z,96960.19
2018-07-12T11:13:00.720Z,96964.19
2018-07-12T11:15:27.869Z,96967.92
2018-07-12T11:17:54.985Z,96964.96
2018-07-12T11:20:22.167Z,96959.41
2018-07-12T11:22:49.321Z,96956.41
2018-07-12T11:25:16.439Z,96951.02
2018-07-12T11:27:43.557Z,96956.70
2018-07-12T11:30:10.736Z,96948.98
2018-07-12T11:32:37.915Z,96955.11
2018-07-12T11:35:05.341Z,96950.70
2018-07-12T11:37:39.284Z,96950.63
2018-07-12T11:40:06.485Z,96961.43
2018-07-12T11:42:33.612Z,96952.95
2018-07-12T11:45:00.717Z,96951.70
2018-07-12T11:47:27.892Z,96946.34
2018-07-12T11:49:55.008Z,96951.52
2018-07-12T11:52:22.182Z,96945.42
2018-07-12T11:54:49.328Z,96953.88
2018-07-12T11:57:16.515Z,96956.87
2018-07-12T11:59:43.634Z,96953.84
2018-07-12T12:02:10.941Z,96954.03
2018-07-12T12:04:38.180Z,96952.48
2018-07-12T12:07:05.358Z,96948.92
2018-07-12T12:09:32.564Z,96952.19
2018-07-12T12:11:59.756Z,96951.99
2018-07-12T12:14:26.905Z,96946.54
2018-07-12T12:16:54.172Z,96946.55
2018-07-12T12:19:21.335Z,96940.23
2018-07-12T12:21:48.500Z,96960.03
2018-07-12T12:24:15.628Z,96953.11
2018-07-12T12:26:42.801Z,96941.39
2018-07-12T12:29:09.988Z,96947.92
2018-07-12T12:31:37.125Z,96947.51
2018-07-12T12:34:04.300Z,96941.95
2018-07-12T12:36:31.388Z,96944.64
2018-07-12T12:38:58.533Z,96951.06
2018-07-12T12:41:25.659Z,96946.66
2018-07-12T12:43:52.809Z,96932.33
2018-07-12T12:46:19.917Z,96945.17
2018-07-12T12:48:47.032Z,96939.64
2018-07-12T12:51:14.182Z,96942.55
2018-07-12T12:53:41.357Z,96948.78
2018-07-12T12:56:08.504Z,96946.89
2018-07-12T12:58:35.639Z,96949.92
2018-07-12T13:01:02.843Z,96953.91
2018-07-12T13:03:30.020Z,96950.37
2018-07-12T13:05:57.172Z,96949.99
2018-07-12T13:08:24.332Z,96947.52
2018-07-12T13:10:51.464Z,96947.93
2018-07-12T13:13:18.584Z,96943.37
2018-07-12T13:15:45.729Z,96947.17
2018-07-12T13:18:12.879Z,96949.02
2018-07-12T13:20:40.178Z,96950.98
2018-07-12T13:23:07.345Z,96963.12
2018-07-12T13:25:34.541Z,96956.73
2018-07-12T13:28:01.717Z,96944.66
2018-07-12T13:30:28.804Z,96967.23
2018-07-12T13:32:56.027Z,96957.23
2018-07-12T13:35:23.157Z,96955.88
2018-07-12T13:37:50.283Z,96947.77
2018-07-12T13:40:18.595Z,96949.09
2018-07-12T13:42:45.769Z,96950.74
2018-07-12T13:45:12.952Z,96953.52
2018-07-12T13:47:40.139Z,96944.95
2018-07-12T13:50:07.292Z,96956.90
2018-07-12T13:52:34.444Z,96961.86
2018-07-12T13:55:01.552Z,96967.48
2018-07-12T13:57:28.667Z,96959.70
2018-07-12T13:59:55.800Z,96955.62
2018-07-12T14:02:22.935Z,96957.11
2018-07-12T14:04:50.063Z,96959.43
2018-07-12T14:07:17.181Z,96963.20
2018-07-12T14:09:44.324Z,96960.87
2018-07-12T14:12:11.478Z,96957.33
2018-07-12T14:14:38.581Z,96961.41
2018-07-12T14:17:05.759Z,96953.74
2018-07-12T14:19:32.932Z,96952.27
2018-07-12T14:22:00.116Z,96949.53
2018-07-12T14:24:27.277Z,96948.81
2018-07-12T14:26:54.416Z,96943.56
2018-07-12T14:29:21.575Z,96945.13
2018-07-12T14:31:48.704Z,96935.95
2018-07-12T14:34:15.825Z,96937.55
2018-07-12T14:36:43.027Z,96933.25
2018-07-12T14:39:10.159Z,96930.80
2018-07-12T14:41:37.329Z,96918.98
2018-07-12T14:44:04.528Z,96917.81
2018-07-12T14:46:31.664Z,96922.37
2018-07-12T14:48:58.866Z,96931.84
2018-07-12T14:51:32.779Z,96924.81
2018-07-12T14:53:59.982Z,96920.59
2018-07-12T14:56:27.093Z,96926.94
2018-07-12T14:58:54.239Z,96920.20
2018-07-12T15:01:21.339Z,96931.33
2018-07-12T15:03:48.532Z,96927.41
2018-07-12T15:06:15.692Z,96936.77
2018-07-12T15:08:42.866Z,96935.17
2018-07-12T15:11:09.957Z,96938.94
2018-07-12T15:13:37.096Z,96932.47
2018-07-12T15:16:04.311Z,96931.89
2018-07-12T15:18:31.467Z,96930.57
2018-07-12T15:20:58.573Z,96925.25
2018-07-12T15:23:25.795Z,96928.15
2018-07-12T15:25:53.115Z,96918.11
2018-07-12T15:28:20.422Z,96917.95
2018-07-12T15:30:47.699Z,96916.94
2018-07-12T15:33:14.981Z,96917.11
2018-07-12T15:35:42.664Z,96921.47
2018-07-12T15:38:09.789Z,96913.28
2018-07-12T15:40:36.988Z,96918.05
2018-07-12T15:43:04.281Z,96921.11
2018-07-12T15:45:31.550Z,96920.77
2018-07-12T15:47:58.855Z,96914.25
2018-07-12T15:50:26.820Z,96912.88
2018-07-12T15:52:54.745Z,96909.50
2018-07-12T15:55:21.895Z,96909.64
2018-07-12T15:57:50.465Z,96913.92
2018-07-12T16:00:17.921Z,96912.02
2018-07-12T16:02:45.280Z,96917.70
2018-07-12T16:05:12.562Z,96919.61
2018-07-12T16:07:39.776Z,96929.80
2018-07-12T16:10:07.082Z,96926.20
2018-07-12T16:12:34.320Z,96922.22
2018-07-12T16:15:01.529Z,96933.58
2018-07-12T16:17:28.756Z,96927.59
2018-07-12T16:19:56.700Z,96931.05
2018-07-12T16:22:23.888Z,96926.02
2018-07-12T16:24:51.100Z,96925.94
2018-07-12T16:27:18.303Z,96922.55
2018-07-12T16:29:45.615Z,96920.84
2018-07-12T16:32:12.831Z,96926.27
2018-07-12T16:34:39.952Z,96925.28
2018-07-12T16:37:07.120Z,96932.91
2018-07-12T16:39:34.224Z,96927.80
2018-07-12T16:42:01.435Z,96924.36
2018-07-12T16:44:28.531Z,96927.41
2018-07-12T16:46:55.705Z,96936.01
2018-07-12T16:49:22.861Z,96930.61
2018-07-12T16:51:50.040Z,96932.59
2018-07-12T16:54:17.255Z,96932.27
2018-07-12T16:56:44.419Z,96937.87
2018-07-12T16:59:11.633Z,96934.22
2018-07-12T17:01:38.785Z,96932.12
2018-07-12T17:04:05.956Z,96936.91
2018-07-12T17:06:33.147Z,96937.16
2018-07-12T17:09:00.348Z,96934.27
2018-07-12T17:11:27.494Z,96937.70
2018-07-12T17:13:54.670Z,96939.24
2018-07-12T17:16:21.844Z,96935.75
2018-07-12T17:18:49.058Z,96935.59
2018-07-12T17:21:16.284Z,96938.88
2018-07-12T17:23:43.522Z,96942.51
2018-07-12T17:26:10.801Z,96953.31
2018-07-12T17:28:37.946Z,96942.34
2018-07-12T17:31:12.131Z,96951.20
2018-07-12T17:33:39.368Z,96947.73
2018-07-12T17:36:06.494Z,96950.99
2018-07-12T17:38:33.640Z,96959.66
2018-07-12T17:41:00.837Z,96959.68
2018-07-12T17:43:27.996Z,96961.36
2018-07-12T17:45:55.155Z,96966.78
2018-07-12T17:48:22.273Z,96961.74
2018-07-12T17:50:49.504Z,96964.66
2018-07-12T17:53:16.741Z,96961.39
2018-07-12T17:55:43.935Z,96965.97
2018-07-12T17:58:11.384Z,96960.98
2018-07-12T18:00:38.535Z,96971.37
2018-07-12T18:03:05.726Z,96964.83
2018-07-12T18:05:32.950Z,96961.58
2018-07-12T18:08:00.072Z,96964.45
2018-07-12T18:10:27.371Z,96970.23
2018-07-12T18:12:54.605Z,96962.31
2018-07-12T18:15:21.783Z,96972.34
2018-07-12T18:17:48.984Z,96960.59
2018-07-12T18:20:16.176Z,96960.78
2018-07-12T18:22:43.340Z,96964.61
2018-07-12T18:25:10.567Z,96965.78
2018-07-12T18:27:49.141Z,96969.80
2018-07-12T18:30:16.339Z,96966.02
2018-07-12T18:32:43.524Z,96967.75
2018-07-12T18:35:10.704Z,96965.13
2018-07-12T18:37:37.876Z,96967.83
2018-07-12T18:40:05.273Z,96967.27
2018-07-12T18:42:32.475Z,96965.73
2018-07-12T18:44:59.660Z,96980.31
2018-07-12T18:47:26.800Z,96979.73
2018-07-12T18:49:54.005Z,96973.20
2018-07-12T18:52:21.159Z,96980.23
2018-07-12T18:54:48.321Z,96979.61
2018-07-12T18:57:15.709Z,96988.02
2018-07-12T18:59:42.779Z,96985.45
2018-07-12T19:02:09.982Z,96986.39
2018-07-12T19:04:37.195Z,96994.79
2018-07-12T19:07:04.326Z,96989.14
2018-07-12T19:09:31.517Z,96992.87
2018-07-12T19:11:58.704Z,96992.77
2018-07-12T19:14:26.008Z,96996.11
2018-07-12T19:16:53.108Z,97007.25
2018-07-12T19:19:20.290Z,97003.13
2018-07-12T19:21:47.437Z,97007.22
2018-07-12T19:24:15.006Z,97010.89
2018-07-12T19:26:42.154Z,97013.20
2018-07-12T19:29:09.299Z,97012.25
2018-07-12T19:31:36.457Z,97019.73
2018-07-12T19:34:03.596Z,97021.38
2018-07-12T19:36:30.783Z,97027.09
2018-07-12T19:38:57.933Z,97033.25
2018-07-12T19:41:25.126Z,97037.41
2018-07-12T19:43:52.325Z,97037.40
2018-07-12T19:46:19.489Z,97042.19
2018-07-12T19:48:46.638Z,97040.66
2018-07-12T19:51:13.742Z,97042.04
2018-07-12T19:53:40.911Z,97040.39
2018-07-12T19:56:08.071Z,97043.95
2018-07-12T19:58:35.480Z,97046.67
2018-07-12T20:01:02.668Z,97047.67
2018-07-12T20:03:29.848Z,97059.47
2018-07-12T20:05:57.112Z,97054.00
2018-07-12T20:08:24.373Z,97055.59
2018-07-12T20:10:52.198Z,97055.34
2018-07-12T20:13:19.340Z,97061.98
2018-07-12T20:15:47.571Z,97058.30
2018-07-12T20:18:14.703Z,97061.05
2018-07-12T20:20:41.953Z,97065.54
2018-07-12T20:23:09.131Z,97070.63
2018-07-12T20:25:36.480Z,97065.64
2018-07-12T20:28:03.694Z,97069.77
2018-07-12T20:30:30.869Z,97058.17
2018-07-12T20:32:58.060Z,97054.72
2018-07-12T20:35:25.257Z,97056.55
2018-07-12T20:37:52.418Z,97052.30
2018-07-12T20:40:19.552Z,97060.20
2018-07-12T20:42:46.675Z,97085.52
2018-07-12T20:45:13.820Z,97079.09
2018-07-12T20:47:40.991Z,97078.09
2018-07-12T20:50:08.124Z,97078.66
2018-07-12T20:52:35.257Z,97080.69
2018-07-12T20:55:02.985Z,97077.35
2018-07-12T20:57:30.311Z,97080.00
2018-07-12T20:59:57.519Z,97080.68
2018-07-12T21:02:24.685Z,97086.09
2018-07-12T21:04:52.021Z,97088.17
2018-07-12T21:07:19.259Z,97087.44
2018-07-12T21:09:46.468Z,97086.09
2018-07-12T21:12:13.647Z,97082.52
2018-07-12T21:14:40.809Z,97075.25
2018-07-12T21:17:07.956Z,97082.69
2018-07-12T21:19:35.104Z,97078.21
2018-07-12T21:22:02.236Z,97077.81
2018-07-12T21:24:29.452Z,97074.80
2018-07-12T21:26:56.612Z,97074.00
2018-07-12T21:29:23.848Z,97068.31
2018-07-12T21:31:51.021Z,97069.03
2018-07-12T21:34:18.203Z,97076.05
2018-07-12T21:36:45.335Z,97079.77
2018-07-12T21:39:12.434Z,97082.24
2018-07-12T21:41:39.728Z,97086.70
2018-07-12T21:44:06.908Z,97090.36
2018-07-12T21:46:34.080Z,97089.10
2018-07-12T21:49:01.224Z,97091.70
2018-07-12T21:51:28.347Z,97095.94
2018-07-12T21:53:55.499Z,97097.93
2018-07-12T21:56:22.633Z,97091.98
2018-07-12T21:58:49.849Z,97102.77
2018-07-12T22:01:16.957Z,97104.00
2018-07-12T22:03:44.155Z,97097.30
2018-07-12T22:06:11.300Z,97101.60
2018-07-12T22:08:38.427Z,97101.44
2018-07-12T22:11:06.094Z,97102.38
2018-07-12T22:13:34.430Z,97106.95
2018-07-12T22:16:01.746Z,97108.09
2018-07-12T22:18:28.969Z,97113.02
2018-07-12T22:20:56.084Z,97113.59
2018-07-12T22:23:23.257Z,97110.55
2018-07-12T22:25:50.372Z,97117.72
2018-07-12T22:28:17.483Z,97113.88
2018-07-12T22:30:44.637Z,97109.88
2018-07-12T22:33:11.864Z,97112.94
2018-07-12T22:35:39.011Z,97111.87
2018-07-12T22:38:06.164Z,97110.08
2018-07-12T22:40:33.346Z,97115.56
2018-07-12T22:43:00.501Z,97118.70
2018-07-12T22:45:27.675Z,97113.88
2018-07-12T22:47:55.019Z,97116.92
2018-07-12T22:50:22.197Z,97113.63
2018-07-12T22:52:49.348Z,97114.54
2018-07-12T22:55:17.908Z,97116.70
2018-07-12T22:57:45.023Z,97113.59
2018-07-12T23:00:12.248Z,97115.25
2018-07-12T23:02:39.565Z,97110.36
2018-07-12T23:05:06.945Z,97109.48
2018-07-12T23:07:34.060Z,97114.23
2018-07-12T23:10:01.219Z,97110.58
2018-07-12T23:12:28.615Z,97109.65
2018-07-12T23:14:55.740Z,97107.81
2018-07-12T23:17:22.900Z,97110.89
2018-07-12T23:19:50.301Z,97112.67
2018-07-12T23:22:17.457Z,97111.83
2018-07-12T23:24:44.686Z,97105.68
2018-07-12T23:27:11.829Z,97105.05
2018-07-12T23:29:38.959Z,97108.17
2018-07-12T23:32:06.049Z,97112.06
2018-07-12T23:34:33.194Z,97113.42
2018-07-12T23:37:00.365Z,97113.57
2018-07-12T23:39:27.577Z,97120.20
2018-07-12T23:41:54.736Z,97132.77
2018-07-12T23:44:21.961Z,97120.69
2018-07-12T23:46:49.212Z,97113.28
2018-07-12T23:49:16.347Z,97126.33
2018-07-12T23:51:43.747Z,97117.40
2018-07-12T23:54:10.901Z,97122.77
2018-07-12T23:56:38.081Z,97119.75
2018-07-12T23:59:05.207Z,97112.80
